createdAt,value
2019-01-27T00:00:27.560Z,3.67
2019-01-27T00:01:27.552Z,3.75
2019-01-27T00:02:27.550Z,3.79
2019-01-27T00:03:27.529Z,3.86
2019-01-27T00:04:27.520Z,3.76
2019-01-27T00:05:27.530Z,3.88
2019-01-27T00:06:27.498Z,3.85
2019-01-27T00:07:27.488Z,3.86
2019-01-27T00:08:27.482Z,3.76
2019-01-27T00:09:27.473Z,3.79
2019-01-27T00:10:27.455Z,3.83
2019-01-27T00:11:27.457Z,3.85
2019-01-27T00:12:27.433Z,3.86
2019-01-27T00:13:27.423Z,3.79
2019-01-27T00:14:27.408Z,3.88
2019-01-27T00:15:27.404Z,3.82
2019-01-27T00:16:27.390Z,3.82
2019-01-27T00:17:27.389Z,3.90
2019-01-27T00:18:27.377Z,3.83
2019-01-27T00:19:27.354Z,3.85
2019-01-27T00:20:27.343Z,3.83
2019-01-27T00:21:27.337Z,3.82
2019-01-27T00:22:27.356Z,3.89
2019-01-27T00:23:27.311Z,3.85
2019-01-27T00:24:27.301Z,3.83
2019-01-27T00:25:27.287Z,3.85
2019-01-27T00:26:27.278Z,3.85
2019-01-27T00:27:27.272Z,3.88
2019-01-27T00:28:27.294Z,3.80
2019-01-27T00:29:27.247Z,3.94
2019-01-27T00:30:27.232Z,3.85
2019-01-27T00:31:27.223Z,3.88
2019-01-27T00:32:27.212Z,3.90
2019-01-27T00:33:27.215Z,3.90
2019-01-27T00:34:27.205Z,3.80
2019-01-27T00:35:27.181Z,3.72
2019-01-27T00:36:27.206Z,3.72
2019-01-27T00:37:27.162Z,3.68
2019-01-27T00:38:27.147Z,3.71
2019-01-27T00:39:27.142Z,3.79
2019-01-27T00:40:27.128Z,3.67
2019-01-27T00:41:27.115Z,3.82
2019-01-27T00:42:27.115Z,3.72
2019-01-27T00:43:27.106Z,3.78
2019-01-27T00:44:27.080Z,3.72
2019-01-27T00:45:27.079Z,3.78
2019-01-27T00:46:27.061Z,3.71
2019-01-27T00:47:27.048Z,3.61
2019-01-27T00:48:27.060Z,3.62
2019-01-27T00:49:27.029Z,3.67
2019-01-27T00:50:27.017Z,3.78
2019-01-27T00:51:27.012Z,3.68
2019-01-27T00:52:26.996Z,3.64
2019-01-27T00:53:26.985Z,3.65
2019-01-27T00:54:26.995Z,3.68
2019-01-27T00:55:26.960Z,3.64
2019-01-27T00:56:26.954Z,3.76
2019-01-27T00:57:26.947Z,3.72
2019-01-27T00:58:26.929Z,3.67
2019-01-27T00:59:26.918Z,3.71
2019-01-27T01:00:26.921Z,3.53
2019-01-27T01:01:26.896Z,3.67
2019-01-27T01:02:26.885Z,3.65
2019-01-27T01:03:26.880Z,3.64
2019-01-27T01:04:26.863Z,3.65
2019-01-27T01:05:26.871Z,3.70
2019-01-27T01:06:26.842Z,3.67
2019-01-27T01:07:26.829Z,3.68
2019-01-27T01:08:26.821Z,3.68
2019-01-27T01:09:26.816Z,3.65
2019-01-27T01:10:26.799Z,3.65
2019-01-27T01:11:26.800Z,3.70
2019-01-27T01:12:26.776Z,3.67
2019-01-27T01:13:26.768Z,3.61
2019-01-27T01:14:26.755Z,3.61
2019-01-27T01:15:26.748Z,3.64
2019-01-27T01:16:26.760Z,3.68
2019-01-27T01:17:26.720Z,3.70
2019-01-27T01:18:26.710Z,3.67
2019-01-27T01:19:26.702Z,3.68
2019-01-27T01:20:26.688Z,3.76
2019-01-27T01:21:26.682Z,3.68
2019-01-27T01:22:26.680Z,3.71
2019-01-27T01:23:26.660Z,3.78
2019-01-27T01:24:26.649Z,3.72
2019-01-27T01:25:26.635Z,3.64
2019-01-27T01:26:26.635Z,3.70
2019-01-27T01:27:26.618Z,3.64
2019-01-27T01:28:26.602Z,3.68
2019-01-27T01:29:26.590Z,3.76
2019-01-27T01:30:26.579Z,3.82
2019-01-27T01:31:28.041Z,3.82
2019-01-27T01:32:26.573Z,3.88
2019-01-27T01:33:26.554Z,3.82
2019-01-27T01:34:26.537Z,3.96
2019-01-27T01:35:26.525Z,3.82
2019-01-27T01:36:26.514Z,3.88
2019-01-27T01:37:26.535Z,3.88
2019-01-27T01:38:26.491Z,3.85
2019-01-27T01:39:26.491Z,3.92
2019-01-27T01:40:26.474Z,3.86
2019-01-27T01:41:26.462Z,3.85
2019-01-27T01:42:26.449Z,3.82
2019-01-27T01:43:26.450Z,3.98
2019-01-27T01:44:26.425Z,3.90
2019-01-27T01:45:26.423Z,3.97
2019-01-27T01:46:26.405Z,3.94
2019-01-27T01:47:26.425Z,4.00
2019-01-27T01:48:26.382Z,4.08
2019-01-27T01:49:26.373Z,4.15
2019-01-27T01:50:26.376Z,4.06
2019-01-27T01:51:26.352Z,3.98
2019-01-27T01:52:26.349Z,4.07
2019-01-27T01:53:26.351Z,4.00
2019-01-27T01:54:26.317Z,4.08
2019-01-27T01:55:26.306Z,4.06
2019-01-27T01:56:26.296Z,4.04
2019-01-27T01:57:26.285Z,4.00
2019-01-27T01:58:26.277Z,3.97
2019-01-27T01:59:26.278Z,4.08
2019-01-27T02:00:26.252Z,3.97
2019-01-27T02:01:26.241Z,3.97
2019-01-27T02:02:26.234Z,4.01
2019-01-27T02:03:26.218Z,4.01
2019-01-27T02:04:26.229Z,3.90
2019-01-27T02:05:26.198Z,4.00
2019-01-27T02:06:26.198Z,3.96
2019-01-27T02:07:26.174Z,4.06
2019-01-27T02:08:26.164Z,3.92
2019-01-27T02:09:26.154Z,3.96
2019-01-27T02:10:26.161Z,4.06
2019-01-27T02:11:26.131Z,4.10
2019-01-27T02:12:26.121Z,4.00
2019-01-27T02:13:26.132Z,4.00
2019-01-27T02:14:26.098Z,4.04
2019-01-27T02:15:26.090Z,3.98
2019-01-27T02:16:26.084Z,4.00
2019-01-27T02:17:26.066Z,4.06
2019-01-27T02:18:26.055Z,4.03
2019-01-27T02:19:26.082Z,3.96
2019-01-27T02:20:26.032Z,4.03
2019-01-27T02:21:26.025Z,4.04
2019-01-27T02:22:26.017Z,4.04
2019-01-27T02:23:26.008Z,4.04
2019-01-27T02:24:25.990Z,4.14
2019-01-27T02:25:26.015Z,4.10
2019-01-27T02:26:25.968Z,4.04
2019-01-27T02:27:25.959Z,4.03
2019-01-27T02:28:25.947Z,4.04
2019-01-27T02:29:25.942Z,4.03
2019-01-27T02:30:25.936Z,4.01
2019-01-27T02:31:25.917Z,4.00
2019-01-27T02:32:25.903Z,4.03
2019-01-27T02:33:25.908Z,3.98
2019-01-27T02:34:25.884Z,4.04
2019-01-27T02:35:25.891Z,4.06
2019-01-27T02:36:25.864Z,4.04
2019-01-27T02:37:25.882Z,4.08
2019-01-27T02:38:25.838Z,4.10
2019-01-27T02:39:25.826Z,4.14
2019-01-27T02:40:25.816Z,4.16
2019-01-27T02:41:25.806Z,4.14
2019-01-27T02:42:25.800Z,4.24
2019-01-27T02:43:25.796Z,4.21
2019-01-27T02:44:25.794Z,4.21
2019-01-27T02:45:25.791Z,4.24
2019-01-27T02:46:25.756Z,4.18
2019-01-27T02:47:25.741Z,4.22
2019-01-27T02:48:25.747Z,4.21
2019-01-27T02:49:25.725Z,4.19
2019-01-27T02:50:25.706Z,4.26
2019-01-27T02:51:25.696Z,4.19
2019-01-27T02:52:25.686Z,4.21
2019-01-27T02:53:25.705Z,4.24
2019-01-27T02:54:25.666Z,4.21
2019-01-27T02:55:25.658Z,4.18
2019-01-27T02:56:25.644Z,4.25
2019-01-27T02:57:25.631Z,4.29
2019-01-27T02:58:25.620Z,4.21
2019-01-27T02:59:25.626Z,4.19
2019-01-27T03:00:25.598Z,4.24
2019-01-27T03:01:25.592Z,4.25
2019-01-27T03:02:25.588Z,4.28
2019-01-27T03:03:25.566Z,4.25
2019-01-27T03:04:25.589Z,4.26
2019-01-27T03:05:25.555Z,4.26
2019-01-27T03:06:25.530Z,4.22
2019-01-27T03:07:25.528Z,4.24
2019-01-27T03:08:25.516Z,4.29
2019-01-27T03:09:25.576Z,4.28
2019-01-27T03:10:25.501Z,4.34
2019-01-27T03:11:25.479Z,4.32
2019-01-27T03:12:25.466Z,4.34
2019-01-27T03:13:25.477Z,4.34
2019-01-27T03:14:25.450Z,4.37
2019-01-27T03:15:25.435Z,4.37
2019-01-27T03:16:25.424Z,4.37
2019-01-27T03:17:25.411Z,4.36
2019-01-27T03:18:25.416Z,4.39
2019-01-27T03:19:25.395Z,4.36
2019-01-27T03:20:25.380Z,4.36
2019-01-27T03:21:25.368Z,4.33
2019-01-27T03:22:25.357Z,4.37
2019-01-27T03:23:25.382Z,4.37
2019-01-27T03:24:25.334Z,4.25
2019-01-27T03:25:25.327Z,4.33
2019-01-27T03:26:25.321Z,4.28
2019-01-27T03:27:25.304Z,4.34
2019-01-27T03:28:25.295Z,4.25
2019-01-27T03:29:25.292Z,4.29
2019-01-27T03:30:25.304Z,4.26
2019-01-27T03:31:25.261Z,4.29
2019-01-27T03:32:25.274Z,4.32
2019-01-27T03:33:25.238Z,4.21
2019-01-27T03:34:25.227Z,4.32
2019-01-27T03:35:25.252Z,4.21
2019-01-27T03:36:25.204Z,4.24
2019-01-27T03:37:25.195Z,4.24
2019-01-27T03:38:25.187Z,4.14
2019-01-27T03:39:25.177Z,4.18
2019-01-27T03:40:25.161Z,4.14
2019-01-27T03:41:25.162Z,4.18
2019-01-27T03:42:25.141Z,4.14
2019-01-27T03:43:25.165Z,4.21
2019-01-27T03:44:25.124Z,4.18
2019-01-27T03:45:25.106Z,4.24
2019-01-27T03:46:25.095Z,4.19
2019-01-27T03:47:25.086Z,4.26
2019-01-27T03:48:25.078Z,4.21
2019-01-27T03:49:25.077Z,4.16
2019-01-27T03:50:25.066Z,4.15
2019-01-27T03:51:25.055Z,4.12
2019-01-27T03:52:25.043Z,4.15
2019-01-27T03:53:25.019Z,4.22
2019-01-27T03:54:25.022Z,4.15
2019-01-27T03:55:24.997Z,4.16
2019-01-27T03:56:24.997Z,4.22
2019-01-27T03:57:24.976Z,4.25
2019-01-27T03:58:24.965Z,4.24
2019-01-27T03:59:24.977Z,4.18
2019-01-27T04:00:24.950Z,4.26
2019-01-27T04:01:25.343Z,4.24
2019-01-27T04:02:24.931Z,4.26
2019-01-27T04:03:24.913Z,4.32
2019-01-27T04:04:24.898Z,4.28
2019-01-27T04:05:24.911Z,4.28
2019-01-27T04:06:24.891Z,4.29
2019-01-27T04:07:24.866Z,4.28
2019-01-27T04:08:24.862Z,4.21
2019-01-27T04:09:24.854Z,4.26
2019-01-27T04:10:24.834Z,4.21
2019-01-27T04:11:24.922Z,4.22
2019-01-27T04:12:24.812Z,4.22
2019-01-27T04:13:24.801Z,4.24
2019-01-27T04:14:24.818Z,4.19
2019-01-27T04:15:24.790Z,4.19
2019-01-27T04:16:24.770Z,4.19
2019-01-27T04:17:24.770Z,4.18
2019-01-27T04:18:24.746Z,4.21
2019-01-27T04:19:24.740Z,4.22
2019-01-27T04:20:24.733Z,4.21
2019-01-27T04:21:24.737Z,4.25
2019-01-27T04:22:24.725Z,4.21
2019-01-27T04:23:24.698Z,4.21
2019-01-27T04:24:24.680Z,4.22
2019-01-27T04:25:24.679Z,4.19
2019-01-27T04:26:24.678Z,4.16
2019-01-27T04:27:24.662Z,4.16
2019-01-27T04:28:24.651Z,4.24
2019-01-27T04:29:24.640Z,4.24
2019-01-27T04:30:24.615Z,4.21
2019-01-27T04:31:24.605Z,4.21
2019-01-27T04:32:24.599Z,4.24
2019-01-27T04:33:24.618Z,4.22
2019-01-27T04:34:24.575Z,4.26
2019-01-27T04:35:24.567Z,4.24
2019-01-27T04:36:24.553Z,4.25
2019-01-27T04:37:24.538Z,4.18
2019-01-27T04:38:24.531Z,4.28
2019-01-27T04:39:24.548Z,4.37
2019-01-27T04:40:24.506Z,4.39
2019-01-27T04:41:24.493Z,4.29
2019-01-27T04:42:24.484Z,4.36
2019-01-27T04:43:24.477Z,4.37
2019-01-27T04:44:24.477Z,4.32
2019-01-27T04:45:24.481Z,4.33
2019-01-27T04:46:24.440Z,4.32
2019-01-27T04:47:24.433Z,4.24
2019-01-27T04:48:24.429Z,4.22
2019-01-27T04:49:24.410Z,4.26
2019-01-27T04:50:24.401Z,4.24
2019-01-27T04:51:24.396Z,4.18
2019-01-27T04:52:24.373Z,4.24
2019-01-27T04:53:24.361Z,4.16
2019-01-27T04:54:24.353Z,4.19
2019-01-27T04:55:24.342Z,4.22
2019-01-27T04:56:24.349Z,4.21
2019-01-27T04:57:24.320Z,4.24
2019-01-27T04:58:24.309Z,4.21
2019-01-27T04:59:24.296Z,4.19
2019-01-27T05:00:24.297Z,4.12
2019-01-27T05:01:24.288Z,4.24
2019-01-27T05:02:24.283Z,4.21
2019-01-27T05:03:24.255Z,4.15
2019-01-27T05:04:24.243Z,4.15
2019-01-27T05:05:24.234Z,4.15
2019-01-27T05:06:24.223Z,4.21
2019-01-27T05:07:24.223Z,4.14
2019-01-27T05:08:24.247Z,4.04
2019-01-27T05:09:24.192Z,4.12
2019-01-27T05:10:24.177Z,4.10
2019-01-27T05:11:24.168Z,4.14
2019-01-27T05:12:24.154Z,4.12
2019-01-27T05:13:24.146Z,4.15
2019-01-27T05:14:24.154Z,4.04
2019-01-27T05:15:24.120Z,4.10
2019-01-27T05:16:24.113Z,4.08
2019-01-27T05:17:24.106Z,4.12
2019-01-27T05:18:24.117Z,4.01
2019-01-27T05:19:24.087Z,4.07
2019-01-27T05:20:24.075Z,4.08
2019-01-27T05:21:24.062Z,4.04
2019-01-27T05:22:24.048Z,4.06
2019-01-27T05:23:24.036Z,4.14
2019-01-27T05:24:24.074Z,3.94
2019-01-27T05:25:24.015Z,4.01
2019-01-27T05:26:24.024Z,3.97
2019-01-27T05:27:25.397Z,3.96
2019-01-27T05:28:23.980Z,3.97
2019-01-27T05:29:23.982Z,4.03
2019-01-27T05:30:23.962Z,4.06
2019-01-27T05:31:23.961Z,3.98
2019-01-27T05:32:23.942Z,3.96
2019-01-27T05:33:23.925Z,4.04
2019-01-27T05:34:23.915Z,4.03
2019-01-27T05:35:23.919Z,4.03
2019-01-27T05:36:23.894Z,4.06
2019-01-27T05:37:23.917Z,4.08
2019-01-27T05:38:23.874Z,4.06
2019-01-27T05:39:23.880Z,4.10
2019-01-27T05:40:23.847Z,4.04
2019-01-27T05:41:23.837Z,4.06
2019-01-27T05:42:23.830Z,3.96
2019-01-27T05:43:23.827Z,4.07
2019-01-27T05:44:23.814Z,4.07
2019-01-27T05:45:23.804Z,4.07
2019-01-27T05:46:23.782Z,4.10
2019-01-27T05:47:23.773Z,4.08
2019-01-27T05:48:23.791Z,4.06
2019-01-27T05:49:23.747Z,4.06
2019-01-27T05:50:23.740Z,4.03
2019-01-27T05:51:23.735Z,4.01
2019-01-27T05:52:23.717Z,4.06
2019-01-27T05:53:23.717Z,4.04
2019-01-27T05:54:23.728Z,4.15
2019-01-27T05:55:23.697Z,4.16
2019-01-27T05:56:23.673Z,4.14
2019-01-27T05:57:23.665Z,4.15
2019-01-27T05:58:23.649Z,4.15
2019-01-27T05:59:23.637Z,4.18
2019-01-27T06:00:23.648Z,4.15
2019-01-27T06:01:23.617Z,4.16
2019-01-27T06:02:23.607Z,4.12
2019-01-27T06:03:23.604Z,4.14
2019-01-27T06:04:23.584Z,4.14
2019-01-27T06:05:23.572Z,4.12
2019-01-27T06:06:23.577Z,4.15
2019-01-27T06:07:23.550Z,4.12
2019-01-27T06:08:23.542Z,4.15
2019-01-27T06:09:23.540Z,4.04
2019-01-27T06:10:23.516Z,4.08
2019-01-27T06:11:23.519Z,4.08
2019-01-27T06:12:23.495Z,4.00
2019-01-27T06:13:23.486Z,4.08
2019-01-27T06:14:23.479Z,4.04
2019-01-27T06:15:23.462Z,4.08
2019-01-27T06:16:23.521Z,4.06
2019-01-27T06:17:23.442Z,4.10
2019-01-27T06:18:23.434Z,4.01
2019-01-27T06:19:23.418Z,3.98
2019-01-27T06:20:23.415Z,4.01
2019-01-27T06:21:23.412Z,4.04
2019-01-27T06:22:23.396Z,4.04
2019-01-27T06:23:23.379Z,3.96
2019-01-27T06:24:23.365Z,3.98
2019-01-27T06:25:26.067Z,3.98
2019-01-27T06:26:23.358Z,4.00
2019-01-27T06:27:23.341Z,3.98
2019-01-27T06:28:23.326Z,4.00
2019-01-27T06:29:23.312Z,4.08
2019-01-27T06:30:23.303Z,3.98
2019-01-27T06:31:23.301Z,4.04
2019-01-27T06:32:23.276Z,4.03
2019-01-27T06:33:23.302Z,4.06
2019-01-27T06:34:23.254Z,4.06
2019-01-27T06:35:23.248Z,3.97
2019-01-27T06:36:23.235Z,4.06
2019-01-27T06:37:24.842Z,4.04
2019-01-27T06:38:23.219Z,3.97
2019-01-27T06:39:23.216Z,3.94
2019-01-27T06:40:23.194Z,3.96
2019-01-27T06:41:23.178Z,3.97
2019-01-27T06:42:23.169Z,4.01
2019-01-27T06:43:23.171Z,4.06
2019-01-27T06:44:23.180Z,4.03
2019-01-27T06:45:23.135Z,4.01
2019-01-27T06:46:23.125Z,4.00
2019-01-27T06:47:23.113Z,3.98
2019-01-27T06:48:23.106Z,4.04
2019-01-27T06:49:23.091Z,4.01
2019-01-27T06:50:23.101Z,4.04
2019-01-27T06:51:23.068Z,4.06
2019-01-27T06:52:23.059Z,4.00
2019-01-27T06:53:23.046Z,4.06
2019-01-27T06:54:23.069Z,4.12
2019-01-27T06:55:23.027Z,4.03
2019-01-27T06:56:23.020Z,4.01
2019-01-27T06:57:23.005Z,4.00
2019-01-27T06:58:22.993Z,4.08
2019-01-27T06:59:22.981Z,4.06
2019-01-27T07:00:22.987Z,3.98
2019-01-27T07:01:22.960Z,3.98
2019-01-27T07:02:29.355Z,3.96
2019-01-27T07:03:23.936Z,3.90
2019-01-27T07:04:22.926Z,3.94
2019-01-27T07:05:22.928Z,4.01
2019-01-27T07:06:22.927Z,4.03
2019-01-27T07:07:22.894Z,3.96
2019-01-27T07:08:22.892Z,3.96
2019-01-27T07:09:22.871Z,4.00
2019-01-27T07:10:22.860Z,3.98
2019-01-27T07:11:22.850Z,3.96
2019-01-27T07:12:22.854Z,3.92
2019-01-27T07:13:22.830Z,3.96
2019-01-27T07:14:22.826Z,3.92
2019-01-27T07:15:22.809Z,4.01
2019-01-27T07:16:22.800Z,3.98
2019-01-27T07:17:22.829Z,4.04
2019-01-27T07:18:22.776Z,4.04
2019-01-27T07:19:22.763Z,4.12
2019-01-27T07:20:22.762Z,4.15
2019-01-27T07:21:22.743Z,4.16
2019-01-27T07:22:22.732Z,4.16
2019-01-27T07:23:22.750Z,4.19
2019-01-27T07:24:22.707Z,4.25
2019-01-27T07:25:22.697Z,4.32
2019-01-27T07:26:22.692Z,4.19
2019-01-27T07:27:22.677Z,4.26
2019-01-27T07:28:22.666Z,4.25
2019-01-27T07:29:22.673Z,4.33
2019-01-27T07:30:22.643Z,4.36
2019-01-27T07:31:22.634Z,4.40
2019-01-27T07:32:22.631Z,4.40
2019-01-27T07:33:22.609Z,4.46
2019-01-27T07:34:22.633Z,4.47
2019-01-27T07:35:22.588Z,4.36
2019-01-27T07:36:22.576Z,4.47
2019-01-27T07:37:22.568Z,4.51
2019-01-27T07:38:22.563Z,4.58
2019-01-27T07:39:22.544Z,4.54
2019-01-27T07:40:22.568Z,4.54
2019-01-27T07:41:22.525Z,4.64
2019-01-27T07:42:22.511Z,4.59
2019-01-27T07:43:22.498Z,4.65
2019-01-27T07:44:22.497Z,4.72
2019-01-27T07:45:22.478Z,4.64
2019-01-27T07:46:22.490Z,4.62
2019-01-27T07:47:22.455Z,4.65
2019-01-27T07:48:22.448Z,4.64
2019-01-27T07:49:22.432Z,4.65
2019-01-27T07:50:22.427Z,4.62
2019-01-27T07:51:22.411Z,4.59
2019-01-27T07:52:22.417Z,4.67
2019-01-27T07:53:22.394Z,4.64
2019-01-27T07:54:22.378Z,4.69
2019-01-27T07:55:22.368Z,4.64
2019-01-27T07:56:22.363Z,4.67
2019-01-27T07:57:22.358Z,4.69
2019-01-27T07:58:22.354Z,4.64
2019-01-27T07:59:22.324Z,4.65
2019-01-27T08:00:22.314Z,4.64
2019-01-27T08:01:22.300Z,4.67
2019-01-27T08:02:22.299Z,4.83
2019-01-27T08:03:22.278Z,4.80
2019-01-27T08:04:22.304Z,4.76
2019-01-27T08:05:22.261Z,4.89
2019-01-27T08:06:22.247Z,4.91
2019-01-27T08:07:22.236Z,4.94
2019-01-27T08:08:22.235Z,4.96
2019-01-27T08:09:22.214Z,4.95
2019-01-27T08:10:22.217Z,4.98
2019-01-27T08:11:22.191Z,4.95
2019-01-27T08:12:22.179Z,5.02
2019-01-27T08:13:22.168Z,4.98
2019-01-27T08:14:22.162Z,5.01
2019-01-27T08:15:22.160Z,4.99
2019-01-27T08:16:22.160Z,4.99
2019-01-27T08:17:22.125Z,5.09
2019-01-27T08:18:22.113Z,4.99
2019-01-27T08:19:22.103Z,5.04
2019-01-27T08:20:22.098Z,4.96
2019-01-27T08:21:22.083Z,4.95
2019-01-27T08:22:22.114Z,5.13
2019-01-27T08:23:22.057Z,5.02
2019-01-27T08:24:22.046Z,5.02
2019-01-27T08:25:22.035Z,5.14
2019-01-27T08:26:22.024Z,5.09
2019-01-27T08:27:22.031Z,5.07
2019-01-27T08:28:22.038Z,5.12
2019-01-27T08:29:21.991Z,5.17
2019-01-27T08:30:21.980Z,5.23
2019-01-27T08:31:21.968Z,5.16
2019-01-27T08:32:21.957Z,5.17
2019-01-27T08:33:21.955Z,5.20
2019-01-27T08:34:21.966Z,5.23
2019-01-27T08:35:21.925Z,5.30
2019-01-27T08:36:21.912Z,5.27
2019-01-27T08:37:21.903Z,5.34
2019-01-27T08:38:21.898Z,5.32
2019-01-27T08:39:21.884Z,5.34
2019-01-27T08:40:21.881Z,5.31
2019-01-27T08:41:21.868Z,5.40
2019-01-27T08:42:21.847Z,5.49
2019-01-27T08:43:21.848Z,5.41
2019-01-27T08:44:21.825Z,5.45
2019-01-27T08:45:21.817Z,5.40
2019-01-27T08:46:21.804Z,5.35
2019-01-27T08:47:21.796Z,5.41
2019-01-27T08:48:21.811Z,5.49
2019-01-27T08:49:21.769Z,5.45
2019-01-27T08:50:21.771Z,5.53
2019-01-27T08:51:21.753Z,5.46
2019-01-27T08:52:21.737Z,5.50
2019-01-27T08:53:21.725Z,5.53
2019-01-27T08:54:21.715Z,5.43
2019-01-27T08:55:21.740Z,5.38
2019-01-27T08:56:21.691Z,5.43
2019-01-27T08:57:21.687Z,5.52
2019-01-27T08:58:21.670Z,5.49
2019-01-27T08:59:21.661Z,5.46
2019-01-27T09:00:21.649Z,5.56
2019-01-27T09:01:21.649Z,5.60
2019-01-27T09:02:21.630Z,5.60
2019-01-27T09:03:21.647Z,5.60
2019-01-27T09:04:21.603Z,5.60
2019-01-27T09:05:21.594Z,5.64
2019-01-27T09:06:21.603Z,5.63
2019-01-27T09:07:21.570Z,5.57
2019-01-27T09:08:21.561Z,5.59
2019-01-27T09:09:21.562Z,5.70
2019-01-27T09:10:21.537Z,5.63
2019-01-27T09:11:21.528Z,5.68
2019-01-27T09:12:21.528Z,5.67
2019-01-27T09:13:21.503Z,5.67
2019-01-27T09:14:21.499Z,5.67
2019-01-27T09:15:21.493Z,5.67
2019-01-27T09:16:21.471Z,5.67
2019-01-27T09:17:21.476Z,5.68
2019-01-27T09:18:21.450Z,5.67
2019-01-27T09:19:21.438Z,5.75
2019-01-27T09:20:21.428Z,5.67
2019-01-27T09:21:21.434Z,5.66
2019-01-27T09:22:21.407Z,5.68
2019-01-27T09:23:21.393Z,5.77
2019-01-27T09:24:21.397Z,5.74
2019-01-27T09:25:21.374Z,5.92
2019-01-27T09:26:21.419Z,5.98
2019-01-27T09:27:21.358Z,6.03
2019-01-27T09:28:21.338Z,6.04
2019-01-27T09:29:21.352Z,6.18
2019-01-27T09:30:21.316Z,6.10
2019-01-27T09:31:21.314Z,6.09
2019-01-27T09:32:21.296Z,6.13
2019-01-27T09:33:21.307Z,6.11
2019-01-27T09:34:21.272Z,6.09
2019-01-27T09:35:21.276Z,6.07
2019-01-27T09:36:21.250Z,6.10
2019-01-27T09:37:21.245Z,6.04
2019-01-27T09:38:21.242Z,6.16
2019-01-27T09:39:21.237Z,6.10
2019-01-27T09:40:21.209Z,6.16
2019-01-27T09:41:21.197Z,6.22
2019-01-27T09:42:21.184Z,6.26
2019-01-27T09:43:21.174Z,6.11
2019-01-27T09:44:21.185Z,6.30
2019-01-27T09:45:21.155Z,6.26
2019-01-27T09:46:21.141Z,6.13
2019-01-27T09:47:21.129Z,6.18
2019-01-27T09:48:21.118Z,6.18
2019-01-27T09:49:21.106Z,6.07
2019-01-27T09:50:21.110Z,6.13
2019-01-27T09:51:21.091Z,6.11
2019-01-27T09:52:21.077Z,6.06
2019-01-27T09:53:21.068Z,6.06
2019-01-27T09:54:21.052Z,6.06
2019-01-27T09:55:21.054Z,6.11
2019-01-27T09:56:21.030Z,6.03
2019-01-27T09:57:21.025Z,6.09
2019-01-27T09:58:21.008Z,6.16
2019-01-27T09:59:21.018Z,6.09
2019-01-27T10:00:21.021Z,6.10
2019-01-27T10:01:20.973Z,6.13
2019-01-27T10:02:20.963Z,6.16
2019-01-27T10:03:20.962Z,6.13
2019-01-27T10:04:20.945Z,6.21
2019-01-27T10:05:20.932Z,6.13
2019-01-27T10:06:20.974Z,6.10
2019-01-27T10:07:20.911Z,6.14
2019-01-27T10:08:20.899Z,6.09
2019-01-27T10:09:20.908Z,6.26
2019-01-27T10:10:20.877Z,6.35
2019-01-27T10:11:26.666Z,6.44
2019-01-27T10:12:21.865Z,6.59
2019-01-27T10:13:20.844Z,6.62
2019-01-27T10:14:20.834Z,6.63
2019-01-27T10:15:20.826Z,6.73
2019-01-27T10:16:20.807Z,6.76
2019-01-27T10:17:20.810Z,6.73
2019-01-27T10:18:20.787Z,6.69
2019-01-27T10:19:20.789Z,6.80
2019-01-27T10:20:20.766Z,6.76
2019-01-27T10:21:20.757Z,6.68
2019-01-27T10:22:20.743Z,6.68
2019-01-27T10:23:20.731Z,6.69
2019-01-27T10:24:20.753Z,6.68
2019-01-27T10:25:20.710Z,6.62
2019-01-27T10:26:20.698Z,6.65
2019-01-27T10:27:20.690Z,6.58
2019-01-27T10:28:20.684Z,6.63
2019-01-27T10:29:20.665Z,6.63
2019-01-27T10:30:20.666Z,6.62
2019-01-27T10:31:20.655Z,6.63
2019-01-27T10:32:20.632Z,6.61
2019-01-27T10:33:20.621Z,6.61
2019-01-27T10:34:20.618Z,6.69
2019-01-27T10:35:20.600Z,6.66
2019-01-27T10:36:20.621Z,6.63
2019-01-27T10:37:20.574Z,6.56
2019-01-27T10:38:20.566Z,6.62
2019-01-27T10:39:20.555Z,6.61
2019-01-27T10:40:20.550Z,6.56
2019-01-27T10:41:20.533Z,6.59
2019-01-27T10:42:20.534Z,6.58
2019-01-27T10:43:20.513Z,6.54
2019-01-27T10:44:20.499Z,6.50
2019-01-27T10:45:20.488Z,6.48
2019-01-27T10:46:20.497Z,6.51
2019-01-27T10:47:20.501Z,6.50
2019-01-27T10:48:20.454Z,6.53
2019-01-27T10:49:20.443Z,6.50
2019-01-27T10:50:20.432Z,6.54
2019-01-27T10:51:20.422Z,6.53
2019-01-27T10:52:20.419Z,6.58
2019-01-27T10:53:21.033Z,6.59
2019-01-27T10:54:20.387Z,6.61
2019-01-27T10:55:20.375Z,6.61
2019-01-27T10:56:20.366Z,6.61
2019-01-27T10:57:20.356Z,6.65
2019-01-27T10:58:20.345Z,6.66
2019-01-27T10:59:20.361Z,6.65
2019-01-27T11:00:20.322Z,6.62
2019-01-27T11:01:20.310Z,6.62
2019-01-27T11:02:20.299Z,6.62
2019-01-27T11:03:20.289Z,6.62
2019-01-27T11:04:20.281Z,6.59
2019-01-27T11:05:20.277Z,6.62
2019-01-27T11:06:20.254Z,6.54
2019-01-27T11:07:20.243Z,6.65
2019-01-27T11:08:20.230Z,6.59
2019-01-27T11:09:20.221Z,6.76
2019-01-27T11:10:20.231Z,6.61
2019-01-27T11:11:20.198Z,6.63
2019-01-27T11:12:20.189Z,6.69
2019-01-27T11:13:20.200Z,6.73
2019-01-27T11:14:20.167Z,6.77
2019-01-27T11:15:20.161Z,6.72
2019-01-27T11:16:20.148Z,6.79
2019-01-27T11:17:20.132Z,6.86
2019-01-27T11:18:20.121Z,6.83
2019-01-27T11:19:20.131Z,6.81
2019-01-27T11:20:20.099Z,6.80
2019-01-27T11:21:20.086Z,6.87
2019-01-27T11:22:20.078Z,6.94
2019-01-27T11:23:20.103Z,6.89
2019-01-27T11:24:20.062Z,6.91
2019-01-27T11:25:20.047Z,6.89
2019-01-27T11:26:20.033Z,6.91
2019-01-27T11:27:20.021Z,6.97
2019-01-27T11:28:20.009Z,6.94
2019-01-27T11:29:20.010Z,6.98
2019-01-27T11:30:19.994Z,7.01
2019-01-27T11:31:19.976Z,7.04
2019-01-27T11:32:19.966Z,6.98
2019-01-27T11:33:19.956Z,7.05
2019-01-27T11:34:19.955Z,7.07
2019-01-27T11:35:19.981Z,7.12
2019-01-27T11:36:19.933Z,7.20
2019-01-27T11:37:19.911Z,7.16
2019-01-27T11:38:19.899Z,7.17
2019-01-27T11:39:19.888Z,7.26
2019-01-27T11:40:19.877Z,7.23
2019-01-27T11:41:19.908Z,7.27
2019-01-27T11:42:19.858Z,7.38
2019-01-27T11:43:19.842Z,7.37
2019-01-27T11:44:19.832Z,7.41
2019-01-27T11:45:19.820Z,7.41
2019-01-27T11:46:19.810Z,7.45
2019-01-27T11:47:19.836Z,7.49
2019-01-27T11:48:19.793Z,7.49
2019-01-27T11:49:19.778Z,7.47
2019-01-27T11:50:19.766Z,7.50
2019-01-27T11:51:19.756Z,7.50
2019-01-27T11:52:19.747Z,7.42
2019-01-27T11:53:19.755Z,7.52
2019-01-27T11:54:19.731Z,7.58
2019-01-27T11:55:19.713Z,7.72
2019-01-27T11:56:19.703Z,7.75
2019-01-27T11:57:19.688Z,7.81
2019-01-27T11:58:19.677Z,7.85
2019-01-27T11:59:19.678Z,7.84
2019-01-27T12:00:19.661Z,7.93
2019-01-27T12:01:19.647Z,7.85
2019-01-27T12:02:19.635Z,7.97
2019-01-27T12:03:19.636Z,8.00
2019-01-27T12:04:19.614Z,8.03
2019-01-27T12:05:19.601Z,8.07
2019-01-27T12:06:19.593Z,8.07
2019-01-27T12:07:19.582Z,7.97
2019-01-27T12:08:19.580Z,7.96
2019-01-27T12:09:19.556Z,7.90
2019-01-27T12:10:19.546Z,7.92
2019-01-27T12:11:19.536Z,7.84
2019-01-27T12:12:19.528Z,7.78
2019-01-27T12:13:19.557Z,7.79
2019-01-27T12:14:19.502Z,7.75
2019-01-27T12:15:19.492Z,7.81
2019-01-27T12:16:19.479Z,7.78
2019-01-27T12:17:19.469Z,7.82
2019-01-27T12:18:19.458Z,7.67
2019-01-27T12:19:19.504Z,7.72
2019-01-27T12:20:19.436Z,7.67
2019-01-27T12:21:19.424Z,7.63
2019-01-27T12:22:19.414Z,7.66
2019-01-27T12:23:19.405Z,7.59
2019-01-27T12:24:19.391Z,7.69
2019-01-27T12:25:19.394Z,7.66
2019-01-27T12:26:19.373Z,7.62
2019-01-27T12:27:19.359Z,7.62
2019-01-27T12:28:19.348Z,7.67
2019-01-27T12:29:19.338Z,7.63
2019-01-27T12:30:19.365Z,7.63
2019-01-27T12:31:19.318Z,7.62
2019-01-27T12:32:19.304Z,7.69
2019-01-27T12:33:19.296Z,7.58
2019-01-27T12:34:19.282Z,7.59
2019-01-27T12:35:19.272Z,7.56
2019-01-27T12:36:19.271Z,7.52
2019-01-27T12:37:19.248Z,7.40
2019-01-27T12:38:19.237Z,7.29
2019-01-27T12:39:19.271Z,7.41
2019-01-27T12:40:19.222Z,7.29
2019-01-27T12:41:19.240Z,7.35
2019-01-27T12:42:19.193Z,7.31
2019-01-27T12:43:19.183Z,7.34
2019-01-27T12:44:19.171Z,7.34
2019-01-27T12:45:19.161Z,7.37
2019-01-27T12:46:19.156Z,7.32
2019-01-27T12:47:19.150Z,7.32
2019-01-27T12:48:19.131Z,7.34
2019-01-27T12:49:19.129Z,7.34
2019-01-27T12:50:19.110Z,7.38
2019-01-27T12:51:19.093Z,7.35
2019-01-27T12:52:19.093Z,7.44
2019-01-27T12:53:19.075Z,7.44
2019-01-27T12:54:19.076Z,7.45
2019-01-27T12:55:19.095Z,7.47
2019-01-27T12:56:19.049Z,7.47
2019-01-27T12:57:19.029Z,7.47
2019-01-27T12:58:19.020Z,7.45
2019-01-27T12:59:19.006Z,7.50
2019-01-27T13:00:18.995Z,7.55
2019-01-27T13:01:18.996Z,7.56
2019-01-27T13:02:18.972Z,7.56
2019-01-27T13:03:18.963Z,7.52
2019-01-27T13:04:18.962Z,7.55
2019-01-27T13:05:18.937Z,7.56
2019-01-27T13:06:18.940Z,7.56
2019-01-27T13:07:18.916Z,7.66
2019-01-27T13:08:18.906Z,7.66
2019-01-27T13:09:18.902Z,7.66
2019-01-27T13:10:18.894Z,7.66
2019-01-27T13:11:18.925Z,7.62
2019-01-27T13:12:18.873Z,7.71
2019-01-27T13:13:18.851Z,7.58
2019-01-27T13:14:18.838Z,7.66
2019-01-27T13:15:18.830Z,7.62
2019-01-27T13:16:18.831Z,7.66
2019-01-27T13:17:18.837Z,7.66
2019-01-27T13:18:18.794Z,7.67